sensor_id;sensor_type;location;lat;lon;timestamp;temperature;humidity
33863;DHT22;20158;51.436;-2.742;2023-03-01T00:01:14;9.40;56.70
33863;DHT22;20158;51.436;-2.742;2023-03-01T00:03:41;9.40;56.70
33863;DHT22;20158;51.436;-2.742;2023-03-01T00:06:08;9.40;56.60
33863;DHT22;20158;51.436;-2.742;2023-03-01T00:08:34;9.50;56.80
33863;DHT22;20158;51.436;-2.742;2023-03-01T00:11:07;9.40;56.60
33863;DHT22;20158;51.436;-2.742;2023-03-01T00:13:34;9.40;56.60
33863;DHT22;20158;51.436;-2.742;2023-03-01T00:16:03;9.40;56.60
33863;DHT22;20158;51.436;-2.742;2023-03-01T00:18:29;9.40;56.70
33863;DHT22;20158;51.436;-2.742;2023-03-01T00:20:55;9.40;56.70
33863;DHT22;20158;51.436;-2.742;2023-03-01T00:23:22;9.40;56.70
33863;DHT22;20158;51.436;-2.742;2023-03-01T00:25:49;9.40;56.70
33863;DHT22;20158;51.436;-2.742;2023-03-01T00:28:15;9.40;56.70
33863;DHT22;20158;51.436;-2.742;2023-03-01T00:30:41;9.30;56.50
33863;DHT22;20158;51.436;-2.742;2023-03-01T00:33:07;9.30;56.50
33863;DHT22;20158;51.436;-2.742;2023-03-01T00:35:34;9.30;56.60
33863;DHT22;20158;51.436;-2.742;2023-03-01T00:38:00;9.30;56.50
33863;DHT22;20158;51.436;-2.742;2023-03-01T00:40:27;9.30;56.50
33863;DHT22;20158;51.436;-2.742;2023-03-01T00:42:53;9.30;56.50
33863;DHT22;20158;51.436;-2.742;2023-03-01T00:45:19;9.30;56.50
33863;DHT22;20158;51.436;-2.742;2023-03-01T00:47:45;9.30;56.50
33863;DHT22;20158;51.436;-2.742;2023-03-01T00:50:12;9.30;56.40
33863;DHT22;20158;51.436;-2.742;2023-03-01T00:52:38;9.30;56.40
33863;DHT22;20158;51.436;-2.742;2023-03-01T00:55:04;9.30;56.40
33863;DHT22;20158;51.436;-2.742;2023-03-01T00:57:30;9.30;56.30
33863;DHT22;20158;51.436;-2.742;2023-03-01T00:59:56;9.20;56.10
33863;DHT22;20158;51.436;-2.742;2023-03-01T01:02:22;9.20;56.00
33863;DHT22;20158;51.436;-2.742;2023-03-01T01:04:48;9.20;56.00
33863;DHT22;20158;51.436;-2.742;2023-03-01T01:07:15;9.20;56.00
33863;DHT22;20158;51.436;-2.742;2023-03-01T01:09:41;9.20;55.90
33863;DHT22;20158;51.436;-2.742;2023-03-01T01:12:07;9.20;55.80
33863;DHT22;20158;51.436;-2.742;2023-03-01T01:14:34;9.10;55.50
33863;DHT22;20158;51.436;-2.742;2023-03-01T01:17:00;9.10;55.50
33863;DHT22;20158;51.436;-2.742;2023-03-01T01:19:26;9.10;55.50
33863;DHT22;20158;51.436;-2.742;2023-03-01T01:21:52;9.10;55.50
33863;DHT22;20158;51.436;-2.742;2023-03-01T01:24:19;9.10;55.40
33863;DHT22;20158;51.436;-2.742;2023-03-01T01:26:45;9.10;55.40
33863;DHT22;20158;51.436;-2.742;2023-03-01T01:29:12;9.10;55.40
33863;DHT22;20158;51.436;-2.742;2023-03-01T01:31:39;9.00;55.70
33863;DHT22;20158;51.436;-2.742;2023-03-01T01:34:07;9.00;55.20
33863;DHT22;20158;51.436;-2.742;2023-03-01T01:36:34;9.00;55.10
33863;DHT22;20158;51.436;-2.742;2023-03-01T01:39:01;9.00;55.10
33863;DHT22;20158;51.436;-2.742;2023-03-01T01:41:28;9.00;55.10
33863;DHT22;20158;51.436;-2.742;2023-03-01T01:46:44;9.00;55.00
33863;DHT22;20158;51.436;-2.742;2023-03-01T01:49:36;9.00;55.00
33863;DHT22;20158;51.436;-2.742;2023-03-01T01:52:34;9.00;55.00
33863;DHT22;20158;51.436;-2.742;2023-03-01T01:55:16;9.00;55.00
33863;DHT22;20158;51.436;-2.742;2023-03-01T01:57:49;8.90;54.80
33863;DHT22;20158;51.436;-2.742;2023-03-01T02:00:20;8.90;54.80
33863;DHT22;20158;51.436;-2.742;2023-03-01T02:02:48;9.00;55.00
33863;DHT22;20158;51.436;-2.742;2023-03-01T02:05:34;8.90;54.80
33863;DHT22;20158;51.436;-2.742;2023-03-01T02:08:02;8.90;54.90
33863;DHT22;20158;51.436;-2.742;2023-03-01T02:10:29;8.90;54.90
33863;DHT22;20158;51.436;-2.742;2023-03-01T02:12:59;8.90;54.90
33863;DHT22;20158;51.436;-2.742;2023-03-01T02:15:26;8.90;55.00
33863;DHT22;20158;51.436;-2.742;2023-03-01T02:17:53;8.80;54.80
33863;DHT22;20158;51.436;-2.742;2023-03-01T02:20:49;8.80;54.80
33863;DHT22;20158;51.436;-2.742;2023-03-01T02:23:16;8.80;54.80
33863;DHT22;20158;51.436;-2.742;2023-03-01T02:25:56;8.80;54.80
33863;DHT22;20158;51.436;-2.742;2023-03-01T02:28:32;8.80;54.80
33863;DHT22;20158;51.436;-2.742;2023-03-01T02:30:59;8.80;54.80
33863;DHT22;20158;51.436;-2.742;2023-03-01T02:33:45;8.80;54.80
33863;DHT22;20158;51.436;-2.742;2023-03-01T02:36:17;8.80;54.80
33863;DHT22;20158;51.436;-2.742;2023-03-01T02:38:44;8.80;54.80
33863;DHT22;20158;51.436;-2.742;2023-03-01T02:41:13;8.80;54.80
33863;DHT22;20158;51.436;-2.742;2023-03-01T02:43:40;8.80;54.80
33863;DHT22;20158;51.436;-2.742;2023-03-01T02:46:18;8.70;54.60
33863;DHT22;20158;51.436;-2.742;2023-03-01T02:48:56;8.80;54.90
33863;DHT22;20158;51.436;-2.742;2023-03-01T02:54:25;8.70;54.70
33863;DHT22;20158;51.436;-2.742;2023-03-01T02:56:55;8.70;54.70
33863;DHT22;20158;51.436;-2.742;2023-03-01T02:59:26;8.70;54.80
33863;DHT22;20158;51.436;-2.742;2023-03-01T03:01:53;8.70;54.80
33863;DHT22;20158;51.436;-2.742;2023-03-01T03:04:19;8.70;54.80
33863;DHT22;20158;51.436;-2.742;2023-03-01T03:06:49;8.60;54.70
33863;DHT22;20158;51.436;-2.742;2023-03-01T03:09:17;8.70;54.90
33863;DHT22;20158;51.436;-2.742;2023-03-01T03:11:43;8.70;55.00
33863;DHT22;20158;51.436;-2.742;2023-03-01T03:14:11;8.70;55.00
33863;DHT22;20158;51.436;-2.742;2023-03-01T03:16:41;8.70;55.00
33863;DHT22;20158;51.436;-2.742;2023-03-01T03:19:08;8.60;54.80
33863;DHT22;20158;51.436;-2.742;2023-03-01T03:21:34;8.60;54.90
33863;DHT22;20158;51.436;-2.742;2023-03-01T03:24:00;8.60;54.90
33863;DHT22;20158;51.436;-2.742;2023-03-01T03:26:26;8.60;54.90
33863;DHT22;20158;51.436;-2.742;2023-03-01T03:28:52;8.60;55.00
33863;DHT22;20158;51.436;-2.742;2023-03-01T03:31:18;8.60;54.90
33863;DHT22;20158;51.436;-2.742;2023-03-01T03:33:44;8.60;55.00
33863;DHT22;20158;51.436;-2.742;2023-03-01T03:36:19;8.60;54.90
33863;DHT22;20158;51.436;-2.742;2023-03-01T03:38:45;8.60;55.00
33863;DHT22;20158;51.436;-2.742;2023-03-01T03:41:12;8.60;54.90
33863;DHT22;20158;51.436;-2.742;2023-03-01T03:43:39;8.60;54.90
33863;DHT22;20158;51.436;-2.742;2023-03-01T03:46:07;8.60;55.50
33863;DHT22;20158;51.436;-2.742;2023-03-01T03:48:34;8.60;55.00
33863;DHT22;20158;51.436;-2.742;2023-03-01T03:51:01;8.60;55.00
33863;DHT22;20158;51.436;-2.742;2023-03-01T03:53:28;8.50;55.00
33863;DHT22;20158;51.436;-2.742;2023-03-01T03:55:54;8.50;54.90
33863;DHT22;20158;51.436;-2.742;2023-03-01T03:58:22;8.50;54.90
33863;DHT22;20158;51.436;-2.742;2023-03-01T04:00:51;8.50;54.90
33863;DHT22;20158;51.436;-2.742;2023-03-01T04:03:18;8.40;54.70
33863;DHT22;20158;51.436;-2.742;2023-03-01T04:05:46;8.50;55.00
33863;DHT22;20158;51.436;-2.742;2023-03-01T04:08:13;8.50;55.00
33863;DHT22;20158;51.436;-2.742;2023-03-01T04:10:44;8.40;54.80
33863;DHT22;20158;51.436;-2.742;2023-03-01T04:13:16;8.40;54.80
33863;DHT22;20158;51.436;-2.742;2023-03-01T04:15:43;8.40;54.80
33863;DHT22;20158;51.436;-2.742;2023-03-01T04:18:12;8.40;54.80
33863;DHT22;20158;51.436;-2.742;2023-03-01T04:20:38;8.40;54.80
33863;DHT22;20158;51.436;-2.742;2023-03-01T04:23:16;8.40;54.90
33863;DHT22;20158;51.436;-2.742;2023-03-01T04:25:50;8.40;54.90
33863;DHT22;20158;51.436;-2.742;2023-03-01T04:28:24;8.40;55.40
33863;DHT22;20158;51.436;-2.742;2023-03-01T04:30:52;8.40;54.90
33863;DHT22;20158;51.436;-2.742;2023-03-01T04:33:18;8.40;54.90
33863;DHT22;20158;51.436;-2.742;2023-03-01T04:35:45;8.40;54.90
33863;DHT22;20158;51.436;-2.742;2023-03-01T04:38:11;8.40;55.00
33863;DHT22;20158;51.436;-2.742;2023-03-01T04:40:37;8.40;55.00
33863;DHT22;20158;51.436;-2.742;2023-03-01T04:43:04;8.30;54.80
33863;DHT22;20158;51.436;-2.742;2023-03-01T04:45:32;8.40;55.00
33863;DHT22;20158;51.436;-2.742;2023-03-01T04:47:58;8.30;54.90
33863;DHT22;20158;51.436;-2.742;2023-03-01T04:50:24;8.30;55.00
33863;DHT22;20158;51.436;-2.742;2023-03-01T04:52:51;8.30;55.00
33863;DHT22;20158;51.436;-2.742;2023-03-01T04:55:17;8.30;55.00
33863;DHT22;20158;51.436;-2.742;2023-03-01T04:57:44;8.30;55.00
33863;DHT22;20158;51.436;-2.742;2023-03-01T05:00:12;8.30;55.00
33863;DHT22;20158;51.436;-2.742;2023-03-01T05:02:55;8.30;55.10
33863;DHT22;20158;51.436;-2.742;2023-03-01T05:05:27;8.30;55.20
33863;DHT22;20158;51.436;-2.742;2023-03-01T05:07:56;8.20;55.00
33863;DHT22;20158;51.436;-2.742;2023-03-01T05:10:23;8.30;55.30
33863;DHT22;20158;51.436;-2.742;2023-03-01T05:12:49;8.20;55.10
33863;DHT22;20158;51.436;-2.742;2023-03-01T05:15:18;8.20;55.20
33863;DHT22;20158;51.436;-2.742;2023-03-01T05:17:44;8.20;55.20
33863;DHT22;20158;51.436;-2.742;2023-03-01T05:20:11;8.20;55.30
33863;DHT22;20158;51.436;-2.742;2023-03-01T05:22:37;8.20;55.30
33863;DHT22;20158;51.436;-2.742;2023-03-01T05:25:05;8.20;55.40
33863;DHT22;20158;51.436;-2.742;2023-03-01T05:27:31;8.20;55.40
33863;DHT22;20158;51.436;-2.742;2023-03-01T05:29:57;8.20;55.40
33863;DHT22;20158;51.436;-2.742;2023-03-01T05:32:23;8.20;55.50
33863;DHT22;20158;51.436;-2.742;2023-03-01T05:34:49;8.20;55.50
33863;DHT22;20158;51.436;-2.742;2023-03-01T05:37:14;8.20;55.60
33863;DHT22;20158;51.436;-2.742;2023-03-01T05:39:40;8.20;55.60
33863;DHT22;20158;51.436;-2.742;2023-03-01T05:42:10;8.20;55.70
33863;DHT22;20158;51.436;-2.742;2023-03-01T05:44:36;8.20;55.70
33863;DHT22;20158;51.436;-2.742;2023-03-01T05:47:03;8.10;55.60
33863;DHT22;20158;51.436;-2.742;2023-03-01T05:49:29;8.10;55.60
33863;DHT22;20158;51.436;-2.742;2023-03-01T05:51:55;8.10;55.70
33863;DHT22;20158;51.436;-2.742;2023-03-01T05:54:22;8.10;55.70
33863;DHT22;20158;51.436;-2.742;2023-03-01T05:56:48;8.10;55.80
33863;DHT22;20158;51.436;-2.742;2023-03-01T05:59:14;8.10;55.90
33863;DHT22;20158;51.436;-2.742;2023-03-01T06:01:42;8.10;56.00
33863;DHT22;20158;51.436;-2.742;2023-03-01T06:04:08;8.00;55.80
33863;DHT22;20158;51.436;-2.742;2023-03-01T06:06:35;8.00;55.90
33863;DHT22;20158;51.436;-2.742;2023-03-01T06:09:04;8.00;56.00
33863;DHT22;20158;51.436;-2.742;2023-03-01T06:11:30;8.00;56.10
33863;DHT22;20158;51.436;-2.742;2023-03-01T06:13:56;8.00;56.10
33863;DHT22;20158;51.436;-2.742;2023-03-01T06:16:22;8.00;56.20
33863;DHT22;20158;51.436;-2.742;2023-03-01T06:18:48;8.00;56.20
33863;DHT22;20158;51.436;-2.742;2023-03-01T06:21:14;8.00;56.20
33863;DHT22;20158;51.436;-2.742;2023-03-01T06:23:40;8.00;56.20
33863;DHT22;20158;51.436;-2.742;2023-03-01T06:26:07;8.00;56.30
33863;DHT22;20158;51.436;-2.742;2023-03-01T06:28:33;8.00;56.30
33863;DHT22;20158;51.436;-2.742;2023-03-01T06:30:59;8.00;56.40
33863;DHT22;20158;51.436;-2.742;2023-03-01T06:33:25;8.00;56.40
33863;DHT22;20158;51.436;-2.742;2023-03-01T06:35:53;7.90;56.30
33863;DHT22;20158;51.436;-2.742;2023-03-01T06:38:20;7.90;56.30
33863;DHT22;20158;51.436;-2.742;2023-03-01T06:40:52;7.90;56.40
33863;DHT22;20158;51.436;-2.742;2023-03-01T06:43:18;7.90;56.40
33863;DHT22;20158;51.436;-2.742;2023-03-01T06:45:44;8.00;56.70
33863;DHT22;20158;51.436;-2.742;2023-03-01T06:48:11;7.90;56.50
33863;DHT22;20158;51.436;-2.742;2023-03-01T06:50:37;7.90;56.60
33863;DHT22;20158;51.436;-2.742;2023-03-01T06:53:03;7.90;56.70
33863;DHT22;20158;51.436;-2.742;2023-03-01T06:55:30;7.90;56.80
33863;DHT22;20158;51.436;-2.742;2023-03-01T06:57:57;7.90;56.80
33863;DHT22;20158;51.436;-2.742;2023-03-01T07:00:24;7.90;56.90
33863;DHT22;20158;51.436;-2.742;2023-03-01T07:02:51;7.90;56.90
33863;DHT22;20158;51.436;-2.742;2023-03-01T07:05:17;7.90;57.00
33863;DHT22;20158;51.436;-2.742;2023-03-01T07:07:43;7.90;57.40
33863;DHT22;20158;51.436;-2.742;2023-03-01T07:10:10;8.00;57.80
33863;DHT22;20158;51.436;-2.742;2023-03-01T07:12:36;8.10;58.20
33863;DHT22;20158;51.436;-2.742;2023-03-01T07:15:03;8.20;58.60
33863;DHT22;20158;51.436;-2.742;2023-03-01T07:17:30;8.30;58.90
33863;DHT22;20158;51.436;-2.742;2023-03-01T07:19:56;8.30;59.00
33863;DHT22;20158;51.436;-2.742;2023-03-01T07:22:22;8.40;59.30
33863;DHT22;20158;51.436;-2.742;2023-03-01T07:24:48;8.50;59.40
33863;DHT22;20158;51.436;-2.742;2023-03-01T07:27:14;8.60;59.50
33863;DHT22;20158;51.436;-2.742;2023-03-01T07:29:40;8.60;60.00
33863;DHT22;20158;51.436;-2.742;2023-03-01T07:32:06;8.60;59.40
33863;DHT22;20158;51.436;-2.742;2023-03-01T07:34:32;8.60;59.30
33863;DHT22;20158;51.436;-2.742;2023-03-01T07:36:58;8.60;59.30
33863;DHT22;20158;51.436;-2.742;2023-03-01T07:39:24;8.60;59.30
33863;DHT22;20158;51.436;-2.742;2023-03-01T07:41:51;8.50;59.00
33863;DHT22;20158;51.436;-2.742;2023-03-01T07:44:20;8.50;59.00
33863;DHT22;20158;51.436;-2.742;2023-03-01T07:46:47;8.50;59.10
33863;DHT22;20158;51.436;-2.742;2023-03-01T07:49:12;8.50;59.00
33863;DHT22;20158;51.436;-2.742;2023-03-01T07:51:38;8.50;59.00
33863;DHT22;20158;51.436;-2.742;2023-03-01T07:54:04;8.50;58.90
33863;DHT22;20158;51.436;-2.742;2023-03-01T07:56:30;8.50;58.90
33863;DHT22;20158;51.436;-2.742;2023-03-01T07:58:59;8.60;59.00
33863;DHT22;20158;51.436;-2.742;2023-03-01T08:01:25;8.60;58.90
33863;DHT22;20158;51.436;-2.742;2023-03-01T08:03:51;8.60;58.90
33863;DHT22;20158;51.436;-2.742;2023-03-01T08:06:17;8.70;59.00
33863;DHT22;20158;51.436;-2.742;2023-03-01T08:08:44;8.70;58.80
33863;DHT22;20158;51.436;-2.742;2023-03-01T08:11:14;8.80;58.90
33863;DHT22;20158;51.436;-2.742;2023-03-01T08:13:40;8.80;58.80
33863;DHT22;20158;51.436;-2.742;2023-03-01T08:16:11;8.80;58.60
33863;DHT22;20158;51.436;-2.742;2023-03-01T08:18:38;8.80;58.50
33863;DHT22;20158;51.436;-2.742;2023-03-01T08:21:15;8.80;58.40
33863;DHT22;20158;51.436;-2.742;2023-03-01T08:23:42;8.90;58.50
33863;DHT22;20158;51.436;-2.742;2023-03-01T08:26:17;8.80;58.30
33863;DHT22;20158;51.436;-2.742;2023-03-01T08:28:45;8.90;58.50
33863;DHT22;20158;51.436;-2.742;2023-03-01T08:31:16;8.90;58.40
33863;DHT22;20158;51.436;-2.742;2023-03-01T08:33:42;8.90;58.30
33863;DHT22;20158;51.436;-2.742;2023-03-01T08:36:09;8.90;58.20
33863;DHT22;20158;51.436;-2.742;2023-03-01T08:38:35;9.00;58.30
33863;DHT22;20158;51.436;-2.742;2023-03-01T08:41:02;8.90;58.10
33863;DHT22;20158;51.436;-2.742;2023-03-01T08:43:29;9.00;58.20
33863;DHT22;20158;51.436;-2.742;2023-03-01T08:45:55;9.00;58.10
33863;DHT22;20158;51.436;-2.742;2023-03-01T08:48:21;9.00;58.60
33863;DHT22;20158;51.436;-2.742;2023-03-01T08:50:47;9.10;58.10
33863;DHT22;20158;51.436;-2.742;2023-03-01T08:53:13;9.10;58.00
33863;DHT22;20158;51.436;-2.742;2023-03-01T08:55:39;9.10;58.00
33863;DHT22;20158;51.436;-2.742;2023-03-01T08:58:04;9.20;58.00
33863;DHT22;20158;51.436;-2.742;2023-03-01T09:00:30;9.20;57.90
33863;DHT22;20158;51.436;-2.742;2023-03-01T09:02:56;9.30;58.00
33863;DHT22;20158;51.436;-2.742;2023-03-01T09:05:22;9.30;57.80
33863;DHT22;20158;51.436;-2.742;2023-03-01T09:07:48;9.40;58.00
33863;DHT22;20158;51.436;-2.742;2023-03-01T09:10:14;9.40;57.90
33863;DHT22;20158;51.436;-2.742;2023-03-01T09:12:40;9.40;57.90
33863;DHT22;20158;51.436;-2.742;2023-03-01T09:15:06;9.50;57.90
33863;DHT22;20158;51.436;-2.742;2023-03-01T09:17:32;9.60;58.00
33863;DHT22;20158;51.436;-2.742;2023-03-01T09:19:58;9.60;57.90
33863;DHT22;20158;51.436;-2.742;2023-03-01T09:22:25;9.70;58.00
33863;DHT22;20158;51.436;-2.742;2023-03-01T09:24:51;9.80;57.90
33863;DHT22;20158;51.436;-2.742;2023-03-01T09:27:17;10.00;58.00
33863;DHT22;20158;51.436;-2.742;2023-03-01T09:29:44;10.20;57.90
33863;DHT22;20158;51.436;-2.742;2023-03-01T09:32:10;10.40;57.90
33863;DHT22;20158;51.436;-2.742;2023-03-01T09:34:36;10.50;57.80
33863;DHT22;20158;51.436;-2.742;2023-03-01T09:37:41;10.50;57.60
33863;DHT22;20158;51.436;-2.742;2023-03-01T09:40:18;10.60;57.70
33863;DHT22;20158;51.436;-2.742;2023-03-01T09:43:22;10.70;57.80
33863;DHT22;20158;51.436;-2.742;2023-03-01T09:45:50;10.80;57.80
33863;DHT22;20158;51.436;-2.742;2023-03-01T09:48:21;10.90;57.70
33863;DHT22;20158;51.436;-2.742;2023-03-01T09:50:49;11.00;57.70
33863;DHT22;20158;51.436;-2.742;2023-03-01T09:53:21;11.20;57.80
33863;DHT22;20158;51.436;-2.742;2023-03-01T09:56:21;11.30;57.60
33863;DHT22;20158;51.436;-2.742;2023-03-01T09:59:01;11.30;57.20
33863;DHT22;20158;51.436;-2.742;2023-03-01T10:01:34;11.30;57.20
33863;DHT22;20158;51.436;-2.742;2023-03-01T10:07:05;11.30;57.50
33863;DHT22;20158;51.436;-2.742;2023-03-01T10:09:35;11.30;57.40
33863;DHT22;20158;51.436;-2.742;2023-03-01T10:12:04;11.40;57.50
33863;DHT22;20158;51.436;-2.742;2023-03-01T10:14:42;11.40;57.30
33863;DHT22;20158;51.436;-2.742;2023-03-01T10:19:45;11.60;57.20
33863;DHT22;20158;51.436;-2.742;2023-03-01T10:22:22;11.70;57.20
33863;DHT22;20158;51.436;-2.742;2023-03-01T10:24:51;11.70;57.00
33863;DHT22;20158;51.436;-2.742;2023-03-01T10:27:26;11.80;57.10
33863;DHT22;20158;51.436;-2.742;2023-03-01T10:30:44;11.80;57.10
33863;DHT22;20158;51.436;-2.742;2023-03-01T10:33:32;11.70;56.90
33863;DHT22;20158;51.436;-2.742;2023-03-01T10:36:01;11.80;57.20
33863;DHT22;20158;51.436;-2.742;2023-03-01T10:38:31;12.00;57.40
33863;DHT22;20158;51.436;-2.742;2023-03-01T10:40:59;12.10;57.40
33863;DHT22;20158;51.436;-2.742;2023-03-01T10:43:49;12.20;57.20
33863;DHT22;20158;51.436;-2.742;2023-03-01T10:46:28;12.40;56.90
33863;DHT22;20158;51.436;-2.742;2023-03-01T10:49:14;12.50;56.60
33863;DHT22;20158;51.436;-2.742;2023-03-01T10:51:42;12.50;56.40
33863;DHT22;20158;51.436;-2.742;2023-03-01T10:56:49;12.50;56.50
33863;DHT22;20158;51.436;-2.742;2023-03-01T10:59:29;12.50;56.50
33863;DHT22;20158;51.436;-2.742;2023-03-01T11:02:24;12.50;56.30
33863;DHT22;20158;51.436;-2.742;2023-03-01T11:07:24;12.60;56.20
33863;DHT22;20158;51.436;-2.742;2023-03-01T11:09:50;12.60;56.20
33863;DHT22;20158;51.436;-2.742;2023-03-01T11:12:16;12.60;56.20
33863;DHT22;20158;51.436;-2.742;2023-03-01T11:14:51;12.70;56.10
33863;DHT22;20158;51.436;-2.742;2023-03-01T11:17:24;12.80;56.20
33863;DHT22;20158;51.436;-2.742;2023-03-01T11:22:32;13.00;55.90
33863;DHT22;20158;51.436;-2.742;2023-03-01T11:25:01;13.20;56.00
33863;DHT22;20158;51.436;-2.742;2023-03-01T11:27:33;13.30;55.80
33863;DHT22;20158;51.436;-2.742;2023-03-01T11:32:40;13.80;55.70
33863;DHT22;20158;51.436;-2.742;2023-03-01T11:35:24;13.80;55.20
33863;DHT22;20158;51.436;-2.742;2023-03-01T11:41:12;13.80;55.10
33863;DHT22;20158;51.436;-2.742;2023-03-01T11:44:05;13.80;55.00
33863;DHT22;20158;51.436;-2.742;2023-03-01T11:46:50;13.70;54.80
33863;DHT22;20158;51.436;-2.742;2023-03-01T11:52:13;13.70;55.10
33863;DHT22;20158;51.436;-2.742;2023-03-01T11:57:58;13.80;54.90
33863;DHT22;20158;51.436;-2.742;2023-03-01T12:14:55;14.40;54.10
33863;DHT22;20158;51.436;-2.742;2023-03-01T12:18:03;14.30;53.80
33863;DHT22;20158;51.436;-2.742;2023-03-01T12:20:30;14.20;53.80
33863;DHT22;20158;51.436;-2.742;2023-03-01T12:26:30;14.10;53.70
33863;DHT22;20158;51.436;-2.742;2023-03-01T12:29:34;14.10;53.70
33863;DHT22;20158;51.436;-2.742;2023-03-01T12:34:38;14.20;53.80
33863;DHT22;20158;51.436;-2.742;2023-03-01T12:48:40;14.30;53.40
33863;DHT22;20158;51.436;-2.742;2023-03-01T12:51:11;14.40;53.10
33863;DHT22;20158;51.436;-2.742;2023-03-01T12:53:45;14.50;53.20
33863;DHT22;20158;51.436;-2.742;2023-03-01T12:56:15;14.60;53.10
33863;DHT22;20158;51.436;-2.742;2023-03-01T13:17:58;14.80;52.10
33863;DHT22;20158;51.436;-2.742;2023-03-01T13:20:46;14.70;52.10
33863;DHT22;20158;51.436;-2.742;2023-03-01T13:28:37;14.40;52.40
33863;DHT22;20158;51.436;-2.742;2023-03-01T13:31:07;14.20;51.80
33863;DHT22;20158;51.436;-2.742;2023-03-01T13:33:40;14.20;52.10
33863;DHT22;20158;51.436;-2.742;2023-03-01T13:36:07;14.10;51.80
33863;DHT22;20158;51.436;-2.742;2023-03-01T13:38:44;14.20;52.10
33863;DHT22;20158;51.436;-2.742;2023-03-01T13:41:13;14.20;51.90
33863;DHT22;20158;51.436;-2.742;2023-03-01T13:43:44;14.40;52.10
33863;DHT22;20158;51.436;-2.742;2023-03-01T13:46:18;14.60;52.10
33863;DHT22;20158;51.436;-2.742;2023-03-01T13:48:49;14.70;52.10
33863;DHT22;20158;51.436;-2.742;2023-03-01T13:51:16;14.80;51.70
33863;DHT22;20158;51.436;-2.742;2023-03-01T13:53:47;14.90;51.70
33863;DHT22;20158;51.436;-2.742;2023-03-01T13:56:15;15.00;51.70
33863;DHT22;20158;51.436;-2.742;2023-03-01T13:58:53;15.00;51.50
33863;DHT22;20158;51.436;-2.742;2023-03-01T14:01:31;15.00;51.40
33863;DHT22;20158;51.436;-2.742;2023-03-01T14:03:58;15.00;51.60
33863;DHT22;20158;51.436;-2.742;2023-03-01T14:06:33;15.00;51.70
33863;DHT22;20158;51.436;-2.742;2023-03-01T14:09:20;15.00;51.50
33863;DHT22;20158;51.436;-2.742;2023-03-01T14:12:04;15.10;51.50
33863;DHT22;20158;51.436;-2.742;2023-03-01T14:14:42;15.20;51.50
33863;DHT22;20158;51.436;-2.742;2023-03-01T14:20:07;15.40;51.40
33863;DHT22;20158;51.436;-2.742;2023-03-01T14:22:36;15.40;51.30
33863;DHT22;20158;51.436;-2.742;2023-03-01T14:25:06;15.40;51.30
33863;DHT22;20158;51.436;-2.742;2023-03-01T14:27:42;15.40;51.30
33863;DHT22;20158;51.436;-2.742;2023-03-01T14:30:17;15.40;51.30
33863;DHT22;20158;51.436;-2.742;2023-03-01T14:32:56;15.40;51.10
33863;DHT22;20158;51.436;-2.742;2023-03-01T14:35:32;15.30;50.80
33863;DHT22;20158;51.436;-2.742;2023-03-01T14:37:58;15.30;50.90
33863;DHT22;20158;51.436;-2.742;2023-03-01T14:40:35;15.20;50.80
33863;DHT22;20158;51.436;-2.742;2023-03-01T14:43:08;15.20;50.70
33863;DHT22;20158;51.436;-2.742;2023-03-01T14:45:35;15.20;50.80
33863;DHT22;20158;51.436;-2.742;2023-03-01T14:48:03;15.20;50.70
33863;DHT22;20158;51.436;-2.742;2023-03-01T14:50:32;15.20;50.70
33863;DHT22;20158;51.436;-2.742;2023-03-01T14:53:01;15.20;50.60
33863;DHT22;20158;51.436;-2.742;2023-03-01T14:55:37;15.20;50.60
33863;DHT22;20158;51.436;-2.742;2023-03-01T14:58:14;15.20;50.40
33863;DHT22;20158;51.436;-2.742;2023-03-01T15:00:53;15.10;50.40
33863;DHT22;20158;51.436;-2.742;2023-03-01T15:03:42;15.10;50.40
33863;DHT22;20158;51.436;-2.742;2023-03-01T15:06:14;15.10;50.40
33863;DHT22;20158;51.436;-2.742;2023-03-01T15:08:44;15.00;50.50
33863;DHT22;20158;51.436;-2.742;2023-03-01T15:11:22;14.90;50.40
33863;DHT22;20158;51.436;-2.742;2023-03-01T15:13:51;14.90;50.40
33863;DHT22;20158;51.436;-2.742;2023-03-01T15:16:32;14.80;50.30
33863;DHT22;20158;51.436;-2.742;2023-03-01T15:19:01;14.80;50.40
33863;DHT22;20158;51.436;-2.742;2023-03-01T15:21:36;14.80;50.50
33863;DHT22;20158;51.436;-2.742;2023-03-01T15:26:51;14.70;50.50
33863;DHT22;20158;51.436;-2.742;2023-03-01T15:29:22;14.70;50.50
33863;DHT22;20158;51.436;-2.742;2023-03-01T15:34:26;14.50;50.30
33863;DHT22;20158;51.436;-2.742;2023-03-01T15:36:54;14.50;50.40
33863;DHT22;20158;51.436;-2.742;2023-03-01T15:39:53;14.50;50.40
33863;DHT22;20158;51.436;-2.742;2023-03-01T15:42:36;14.50;50.30
33863;DHT22;20158;51.436;-2.742;2023-03-01T15:47:50;14.50;50.30
33863;DHT22;20158;51.436;-2.742;2023-03-01T15:50:34;14.50;50.40
33863;DHT22;20158;51.436;-2.742;2023-03-01T15:53:03;14.40;50.20
33863;DHT22;20158;51.436;-2.742;2023-03-01T15:55:31;14.40;50.30
33863;DHT22;20158;51.436;-2.742;2023-03-01T15:58:10;14.30;50.40
33863;DHT22;20158;51.436;-2.742;2023-03-01T16:00:37;14.30;50.30
33863;DHT22;20158;51.436;-2.742;2023-03-01T16:03:05;14.20;50.20
33863;DHT22;20158;51.436;-2.742;2023-03-01T16:05:33;14.10;50.10
33863;DHT22;20158;51.436;-2.742;2023-03-01T16:08:00;14.10;50.80
33863;DHT22;20158;51.436;-2.742;2023-03-01T16:10:27;14.00;50.20
33863;DHT22;20158;51.436;-2.742;2023-03-01T16:12:53;14.00;50.30
33863;DHT22;20158;51.436;-2.742;2023-03-01T16:15:22;13.90;50.20
33863;DHT22;20158;51.436;-2.742;2023-03-01T16:17:50;13.80;50.10
33863;DHT22;20158;51.436;-2.742;2023-03-01T16:20:21;13.70;50.20
33863;DHT22;20158;51.436;-2.742;2023-03-01T16:22:47;13.70;50.40
33863;DHT22;20158;51.436;-2.742;2023-03-01T16:25:15;13.50;50.20
33863;DHT22;20158;51.436;-2.742;2023-03-01T16:27:43;13.50;50.40
33863;DHT22;20158;51.436;-2.742;2023-03-01T16:30:10;13.40;50.40
33863;DHT22;20158;51.436;-2.742;2023-03-01T16:32:44;13.40;50.50
33863;DHT22;20158;51.436;-2.742;2023-03-01T16:35:12;13.30;50.40
33863;DHT22;20158;51.436;-2.742;2023-03-01T16:37:39;13.30;50.50
33863;DHT22;20158;51.436;-2.742;2023-03-01T16:40:10;13.20;50.50
33863;DHT22;20158;51.436;-2.742;2023-03-01T16:42:41;13.20;50.60
33863;DHT22;20158;51.436;-2.742;2023-03-01T16:45:08;13.10;50.50
33863;DHT22;20158;51.436;-2.742;2023-03-01T16:47:34;13.10;50.60
33863;DHT22;20158;51.436;-2.742;2023-03-01T16:50:01;13.00;50.60
33863;DHT22;20158;51.436;-2.742;2023-03-01T16:52:27;12.90;50.50
33863;DHT22;20158;51.436;-2.742;2023-03-01T16:54:53;12.90;50.70
33863;DHT22;20158;51.436;-2.742;2023-03-01T16:57:19;12.80;51.20
33863;DHT22;20158;51.436;-2.742;2023-03-01T16:59:45;12.70;50.60
33863;DHT22;20158;51.436;-2.742;2023-03-01T17:02:14;12.70;50.70
33863;DHT22;20158;51.436;-2.742;2023-03-01T17:04:44;12.60;50.80
33863;DHT22;20158;51.436;-2.742;2023-03-01T17:07:10;12.50;50.70
33863;DHT22;20158;51.436;-2.742;2023-03-01T17:09:39;12.40;50.90
33863;DHT22;20158;51.436;-2.742;2023-03-01T17:12:08;12.40;51.40
33863;DHT22;20158;51.436;-2.742;2023-03-01T17:14:34;12.40;51.60
33863;DHT22;20158;51.436;-2.742;2023-03-01T17:17:00;12.30;51.50
33863;DHT22;20158;51.436;-2.742;2023-03-01T17:19:28;12.40;51.80
33863;DHT22;20158;51.436;-2.742;2023-03-01T17:21:54;12.20;51.50